sim
Sign-in with your pilot id or email,
or register
Callsign
Passwort

Schedule Details

Flight Number: EWG83
Departure: Munich Airport (EDDM) at 11:35
Arrival: Cologne Bonn Airport (EDDK) at 12:45
Route: Eurowings Passenger Schedule. Enter filed route here before submitting Pirep.

Weather Information
Getting current METAR information for EDDM 281950Z 19005KT CAVOK 09/06 Q1015 NOSIG
Getting current METAR information for EDDK 281950Z 13005KT 9999 FEW045 11/08 Q1012 NOSIG

Schedule Frequency

Route Map